createdAt,value
2018-02-25T00:00:46.861Z,0
2018-02-25T00:01:47.105Z,0
2018-02-25T00:02:47.069Z,0
2018-02-25T00:03:47.045Z,0
2018-02-25T00:04:47.024Z,0
2018-02-25T00:05:46.756Z,0
2018-02-25T00:06:46.711Z,0
2018-02-25T00:07:46.424Z,0
2018-02-25T00:08:46.662Z,0
2018-02-25T00:09:46.892Z,0
2018-02-25T00:10:46.370Z,0
2018-02-25T00:11:46.566Z,0
2018-02-25T00:12:46.310Z,0
2018-02-25T00:13:46.518Z,0
2018-02-25T00:14:46.752Z,0
2018-02-25T00:15:46.206Z,0
2018-02-25T00:16:46.168Z,0
2018-02-25T00:17:46.674Z,0
2018-02-25T00:18:46.744Z,0
2018-02-25T00:19:46.357Z,0
2018-02-25T00:20:46.064Z,0
2018-02-25T00:21:46.302Z,0
2018-02-25T00:22:46.274Z,0
2018-02-25T00:23:45.726Z,0
2018-02-25T00:24:46.226Z,0
2018-02-25T00:25:45.955Z,0
2018-02-25T00:26:46.431Z,0
2018-02-25T00:27:45.614Z,0
2018-02-25T00:28:45.857Z,0
2018-02-25T00:29:46.100Z,0
2018-02-25T00:30:46.074Z,0
2018-02-25T00:31:46.310Z,0
2018-02-25T00:32:45.743Z,0
2018-02-25T00:33:45.987Z,0
2018-02-25T00:34:45.964Z,0
2018-02-25T00:35:45.945Z,0
2018-02-25T00:36:45.631Z,0
2018-02-25T00:37:46.145Z,0
2018-02-25T00:38:45.847Z,0
2018-02-25T00:39:45.570Z,0
2018-02-25T00:40:45.791Z,0
2018-02-25T00:41:45.768Z,0
2018-02-25T00:42:46.002Z,0
2018-02-25T00:43:46.257Z,0
2018-02-25T00:44:45.420Z,0
2018-02-25T00:45:45.663Z,0
2018-02-25T00:46:45.376Z,0
2018-02-25T00:47:45.343Z,0
2018-02-25T00:48:46.106Z,0
2018-02-25T00:49:45.811Z,0
2018-02-25T00:50:45.841Z,0
2018-02-25T00:51:46.050Z,0
2018-02-25T00:52:45.477Z,0
2018-02-25T00:53:45.716Z,0
2018-02-25T00:54:45.424Z,0
2018-02-25T00:55:45.388Z,0
2018-02-25T00:56:45.366Z,0
2018-02-25T00:57:45.077Z,0
2018-02-25T00:58:44.787Z,0
2018-02-25T00:59:45.282Z,0
2018-02-25T01:00:44.989Z,0
2018-02-25T01:01:45.495Z,0
2018-02-25T01:02:44.938Z,0
2018-02-25T01:03:45.460Z,0
2018-02-25T01:04:45.148Z,0
2018-02-25T01:05:45.124Z,0
2018-02-25T01:06:45.643Z,0
2018-02-25T01:07:44.552Z,0
2018-02-25T01:08:45.310Z,0
2018-02-25T01:09:44.755Z,0
2018-02-25T01:10:45.525Z,0
2018-02-25T01:11:44.979Z,0
2018-02-25T01:12:44.724Z,0
2018-02-25T01:13:44.901Z,0
2018-02-25T01:14:45.141Z,0
2018-02-25T01:15:44.848Z,0
2018-02-25T01:16:44.854Z,0
2018-02-25T01:17:44.792Z,0
2018-02-25T01:18:44.768Z,0
2018-02-25T01:19:45.492Z,0
2018-02-25T01:20:44.995Z,0
2018-02-25T01:21:44.698Z,0
2018-02-25T01:22:45.198Z,0
2018-02-25T01:23:44.636Z,0
2018-02-25T01:24:44.079Z,0
2018-02-25T01:25:44.852Z,0
2018-02-25T01:26:44.552Z,0
2018-02-25T01:27:44.266Z,0
2018-02-25T01:28:44.514Z,0
2018-02-25T01:29:44.736Z,0
2018-02-25T01:30:44.746Z,0
2018-02-25T01:31:44.427Z,0
2018-02-25T01:32:44.134Z,0
2018-02-25T01:33:44.892Z,0
2018-02-25T01:34:44.350Z,0
2018-02-25T01:35:44.577Z,0
2018-02-25T01:36:43.754Z,0
2018-02-25T01:37:44.525Z,0
2018-02-25T01:38:44.256Z,0
2018-02-25T01:39:44.206Z,0
2018-02-25T01:40:44.208Z,0
2018-02-25T01:41:44.423Z,0
2018-02-25T01:42:44.124Z,0
2018-02-25T01:43:44.096Z,0
2018-02-25T01:44:44.339Z,0
2018-02-25T01:45:43.784Z,0
2018-02-25T01:46:44.290Z,0
2018-02-25T01:47:43.986Z,0
2018-02-25T01:48:44.237Z,0
2018-02-25T01:49:44.266Z,0
2018-02-25T01:50:43.909Z,0
2018-02-25T01:51:43.880Z,0
2018-02-25T01:52:44.389Z,0
2018-02-25T01:53:44.124Z,0
2018-02-25T01:54:43.532Z,0
2018-02-25T01:55:44.046Z,0
2018-02-25T01:56:43.490Z,0
2018-02-25T01:57:43.986Z,0
2018-02-25T01:58:43.428Z,0
2018-02-25T01:59:43.937Z,0
2018-02-25T02:00:43.640Z,0
2018-02-25T02:01:43.365Z,0
2018-02-25T02:02:43.635Z,0
2018-02-25T02:03:43.301Z,0
2018-02-25T02:04:43.527Z,0
2018-02-25T02:05:43.772Z,0
2018-02-25T02:06:43.737Z,0
2018-02-25T02:07:43.447Z,0
2018-02-25T02:08:43.682Z,0
2018-02-25T02:09:43.399Z,0
2018-02-25T02:10:43.622Z,0
2018-02-25T02:11:43.866Z,0
2018-02-25T02:12:43.625Z,0
2018-02-25T02:13:43.282Z,0
2018-02-25T02:14:43.519Z,0
2018-02-25T02:15:43.480Z,0
2018-02-25T02:16:43.462Z,0
2018-02-25T02:17:43.451Z,0
2018-02-25T02:18:43.201Z,0
2018-02-25T02:19:43.390Z,0
2018-02-25T02:20:43.106Z,0
2018-02-25T02:21:42.803Z,0
2018-02-25T02:22:43.054Z,0
2018-02-25T02:23:43.053Z,0
2018-02-25T02:24:43.003Z,0
2018-02-25T02:25:42.949Z,0
2018-02-25T02:26:42.714Z,0
2018-02-25T02:27:42.945Z,0
2018-02-25T02:28:42.868Z,0
2018-02-25T02:29:42.838Z,0
2018-02-25T02:30:43.362Z,0
2018-02-25T02:31:42.795Z,0
2018-02-25T02:32:42.764Z,0
2018-02-25T02:33:42.734Z,0
2018-02-25T02:34:42.977Z,0
2018-02-25T02:35:42.422Z,0
2018-02-25T02:36:42.660Z,0
2018-02-25T02:37:42.361Z,0
2018-02-25T02:38:43.153Z,0
2018-02-25T02:39:42.867Z,0
2018-02-25T02:40:42.545Z,0
2018-02-25T02:41:42.512Z,0
2018-02-25T02:42:42.759Z,0
2018-02-25T02:43:42.729Z,0
2018-02-25T02:44:42.478Z,0
2018-02-25T02:45:42.677Z,0
2018-02-25T02:46:42.124Z,0
2018-02-25T02:47:42.626Z,0
2018-02-25T02:48:42.379Z,0
2018-02-25T02:49:42.321Z,0
2018-02-25T02:50:42.588Z,0
2018-02-25T02:51:42.248Z,0
2018-02-25T02:52:42.232Z,0
2018-02-25T02:53:42.726Z,0
2018-02-25T02:54:42.183Z,0
2018-02-25T02:55:41.872Z,0
2018-02-25T02:56:42.414Z,0
2018-02-25T02:57:41.811Z,0
2018-02-25T02:58:42.317Z,0
2018-02-25T02:59:42.309Z,0
2018-02-25T03:00:41.995Z,0
2018-02-25T03:01:42.256Z,0
2018-02-25T03:02:41.935Z,0
2018-02-25T03:03:42.201Z,0
2018-02-25T03:04:42.169Z,0
2018-02-25T03:05:42.129Z,0
2018-02-25T03:06:41.570Z,0
2018-02-25T03:07:42.340Z,0
2018-02-25T03:08:42.040Z,0
2018-02-25T03:09:41.741Z,0
2018-02-25T03:10:41.713Z,0
2018-02-25T03:11:41.424Z,0
2018-02-25T03:12:41.400Z,0
2018-02-25T03:13:41.418Z,0
2018-02-25T03:14:42.147Z,0
2018-02-25T03:15:41.580Z,0
2018-02-25T03:16:41.824Z,0
2018-02-25T03:17:41.274Z,0
2018-02-25T03:18:41.521Z,0
2018-02-25T03:19:41.942Z,0
2018-02-25T03:20:41.713Z,0
2018-02-25T03:21:41.949Z,0
2018-02-25T03:22:41.392Z,0
2018-02-25T03:23:41.633Z,0
2018-02-25T03:24:41.324Z,0
2018-02-25T03:25:41.569Z,0
2018-02-25T03:26:41.277Z,0
2018-02-25T03:27:41.804Z,0
2018-02-25T03:28:41.219Z,0
2018-02-25T03:29:41.461Z,0
2018-02-25T03:30:41.713Z,0
2018-02-25T03:31:41.141Z,0
2018-02-25T03:32:41.373Z,0
2018-02-25T03:33:41.419Z,0
2018-02-25T03:34:40.795Z,0
2018-02-25T03:35:41.075Z,0
2018-02-25T03:36:41.013Z,0
2018-02-25T03:37:40.720Z,0
2018-02-25T03:38:41.210Z,0
2018-02-25T03:39:41.448Z,0
2018-02-25T03:40:40.895Z,0
2018-02-25T03:41:40.860Z,0
2018-02-25T03:42:41.101Z,0
2018-02-25T03:43:41.337Z,0
2018-02-25T03:44:40.523Z,0
2018-02-25T03:45:40.759Z,0
2018-02-25T03:46:40.992Z,0
2018-02-25T03:47:40.982Z,0
2018-02-25T03:48:40.664Z,0
2018-02-25T03:49:40.635Z,0
2018-02-25T03:50:40.872Z,0
2018-02-25T03:51:40.850Z,0
2018-02-25T03:52:41.094Z,0
2018-02-25T03:53:41.076Z,0
2018-02-25T03:54:40.790Z,0
2018-02-25T03:55:40.473Z,0
2018-02-25T03:56:40.453Z,0
2018-02-25T03:57:40.413Z,0
2018-02-25T03:58:40.397Z,0
2018-02-25T03:59:40.663Z,0
2018-02-25T04:00:39.798Z,0
2018-02-25T04:01:40.304Z,0
2018-02-25T04:02:40.856Z,0
2018-02-25T04:03:40.522Z,0
2018-02-25T04:04:40.274Z,0
2018-02-25T04:05:39.935Z,0
2018-02-25T04:06:39.906Z,0
2018-02-25T04:07:39.624Z,0
2018-02-25T04:08:40.145Z,0
2018-02-25T04:09:40.677Z,0
2018-02-25T04:10:40.329Z,0
2018-02-25T04:11:40.587Z,0
2018-02-25T04:12:40.274Z,0
2018-02-25T04:13:39.703Z,0
2018-02-25T04:14:39.942Z,0
2018-02-25T04:15:39.923Z,0
2018-02-25T04:16:40.428Z,0
2018-02-25T04:17:39.342Z,0
2018-02-25T04:18:40.108Z,0
2018-02-25T04:19:39.803Z,0
2018-02-25T04:20:39.511Z,0
2018-02-25T04:21:39.772Z,0
2018-02-25T04:22:39.456Z,0
2018-02-25T04:23:39.426Z,0
2018-02-25T04:24:39.921Z,0
2018-02-25T04:25:39.912Z,0
2018-02-25T04:26:39.872Z,0
2018-02-25T04:27:39.845Z,0
2018-02-25T04:28:39.552Z,0
2018-02-25T04:29:39.265Z,0
2018-02-25T04:30:39.762Z,0
2018-02-25T04:31:39.205Z,0
2018-02-25T04:32:39.725Z,0
2018-02-25T04:33:39.724Z,0
2018-02-25T04:34:39.648Z,0
2018-02-25T04:35:39.352Z,0
2018-02-25T04:36:39.592Z,0
2018-02-25T04:37:39.306Z,0
2018-02-25T04:38:38.755Z,0
2018-02-25T04:39:39.246Z,0
2018-02-25T04:40:39.222Z,0
2018-02-25T04:41:39.454Z,0
2018-02-25T04:42:38.629Z,0
2018-02-25T04:43:38.866Z,0
2018-02-25T04:44:38.840Z,0
2018-02-25T04:45:39.084Z,0
2018-02-25T04:46:39.343Z,0
2018-02-25T04:47:39.030Z,0
2018-02-25T04:48:39.522Z,0
2018-02-25T04:49:38.967Z,0
2018-02-25T04:50:38.953Z,0
2018-02-25T04:51:38.910Z,0
2018-02-25T04:52:39.148Z,0
2018-02-25T04:53:38.850Z,0
2018-02-25T04:54:38.585Z,0
2018-02-25T04:55:38.859Z,0
2018-02-25T04:56:38.505Z,0
2018-02-25T04:57:38.759Z,0
2018-02-25T04:58:38.994Z,0
2018-02-25T04:59:38.426Z,0
2018-02-25T05:00:38.938Z,0
2018-02-25T05:01:38.635Z,0
2018-02-25T05:02:38.333Z,0
2018-02-25T05:03:38.309Z,0
2018-02-25T05:04:38.545Z,0
2018-02-25T05:05:38.516Z,0
2018-02-25T05:06:38.230Z,0
2018-02-25T05:07:38.465Z,0
2018-02-25T05:08:38.453Z,0
2018-02-25T05:09:38.938Z,0
2018-02-25T05:10:38.115Z,0
2018-02-25T05:11:38.612Z,0
2018-02-25T05:12:38.314Z,0
2018-02-25T05:13:38.610Z,0
2018-02-25T05:14:38.790Z,0
2018-02-25T05:15:37.701Z,0
2018-02-25T05:16:37.934Z,0
2018-02-25T05:17:37.647Z,0
2018-02-25T05:18:37.878Z,0
2018-02-25T05:19:38.791Z,0
2018-02-25T05:20:37.824Z,0
2018-02-25T05:21:37.838Z,0
2018-02-25T05:22:38.297Z,0
2018-02-25T05:23:38.273Z,0
2018-02-25T05:24:37.451Z,0
2018-02-25T05:25:38.219Z,0
2018-02-25T05:26:37.936Z,0
2018-02-25T05:27:37.914Z,0
2018-02-25T05:28:37.605Z,0
2018-02-25T05:29:38.118Z,0
2018-02-25T05:30:37.807Z,0
2018-02-25T05:31:37.252Z,0
2018-02-25T05:32:37.754Z,0
2018-02-25T05:33:38.271Z,0
2018-02-25T05:34:37.704Z,0
2018-02-25T05:35:37.947Z,0
2018-02-25T05:36:37.918Z,0
2018-02-25T05:37:38.162Z,0
2018-02-25T05:38:37.606Z,0
2018-02-25T05:39:37.554Z,0
2018-02-25T05:40:37.527Z,0
2018-02-25T05:41:37.236Z,0
2018-02-25T05:42:37.203Z,0
2018-02-25T05:43:37.178Z,0
2018-02-25T05:44:37.424Z,0
2018-02-25T05:45:37.656Z,0
2018-02-25T05:46:37.352Z,0
2018-02-25T05:47:37.602Z,0
2018-02-25T05:48:37.301Z,0
2018-02-25T05:49:37.562Z,0
2018-02-25T05:50:37.242Z,0
2018-02-25T05:51:37.477Z,0
2018-02-25T05:52:36.930Z,0
2018-02-25T05:53:36.896Z,0
2018-02-25T05:54:37.396Z,0
2018-02-25T05:55:37.383Z,0
2018-02-25T05:56:36.811Z,0
2018-02-25T05:57:37.314Z,0
2018-02-25T05:58:36.751Z,0
2018-02-25T05:59:37.270Z,0
2018-02-25T06:00:36.700Z,0
2018-02-25T06:01:36.931Z,0
2018-02-25T06:02:36.642Z,0
2018-02-25T06:03:37.148Z,0
2018-02-25T06:04:36.870Z,0
2018-02-25T06:05:36.814Z,0
2018-02-25T06:06:36.554Z,0
2018-02-25T06:07:36.496Z,0
2018-02-25T06:08:37.004Z,0
2018-02-25T06:09:36.975Z,0
2018-02-25T06:10:36.150Z,0
2018-02-25T06:11:36.924Z,0
2018-02-25T06:12:36.887Z,0
2018-02-25T06:13:37.124Z,0
2018-02-25T06:14:37.101Z,0
2018-02-25T06:15:36.816Z,0
2018-02-25T06:16:36.001Z,0
2018-02-25T06:17:36.484Z,0
2018-02-25T06:18:36.462Z,0
2018-02-25T06:19:36.687Z,0
2018-02-25T06:20:36.403Z,0
2018-02-25T06:21:36.109Z,0
2018-02-25T06:22:36.333Z,0
2018-02-25T06:23:36.309Z,5
2018-02-25T06:24:36.292Z,5
2018-02-25T06:25:36.791Z,5
2018-02-25T06:26:36.225Z,5
2018-02-25T06:27:36.212Z,5
2018-02-25T06:28:35.906Z,5
2018-02-25T06:29:36.149Z,5
2018-02-25T06:30:36.373Z,5
2018-02-25T06:31:36.096Z,5
2018-02-25T06:32:35.795Z,10
2018-02-25T06:33:36.040Z,10
2018-02-25T06:34:36.280Z,10
2018-02-25T06:35:35.984Z,10
2018-02-25T06:36:36.208Z,10
2018-02-25T06:37:36.180Z,10
2018-02-25T06:38:35.623Z,10
2018-02-25T06:39:35.593Z,15
2018-02-25T06:40:35.835Z,15
2018-02-25T06:41:35.814Z,15
2018-02-25T06:42:35.780Z,15
2018-02-25T06:43:36.038Z,15
2018-02-25T06:44:35.713Z,15
2018-02-25T06:45:35.692Z,20
2018-02-25T06:46:35.659Z,20
2018-02-25T06:47:35.636Z,20
2018-02-25T06:48:35.343Z,20
2018-02-25T06:49:35.840Z,20
2018-02-25T06:50:35.810Z,20
2018-02-25T06:51:35.794Z,25
2018-02-25T06:52:35.220Z,25
2018-02-25T06:53:35.216Z,25
2018-02-25T06:54:35.458Z,25
2018-02-25T06:55:35.935Z,25
2018-02-25T06:56:35.104Z,25
2018-02-25T06:57:35.081Z,30
2018-02-25T06:58:35.335Z,30
2018-02-25T06:59:35.878Z,30
2018-02-25T07:00:35.251Z,30
2018-02-25T07:01:35.242Z,30
2018-02-25T07:02:35.200Z,30
2018-02-25T07:03:35.174Z,30
2018-02-25T07:04:34.896Z,35
2018-02-25T07:05:35.388Z,35
2018-02-25T07:06:35.564Z,35
2018-02-25T07:07:35.656Z,35
2018-02-25T07:08:34.508Z,35
2018-02-25T07:09:35.015Z,35
2018-02-25T07:10:35.235Z,40
2018-02-25T07:11:35.494Z,40
2018-02-25T07:12:34.651Z,40
2018-02-25T07:13:35.188Z,40
2018-02-25T07:14:35.154Z,40
2018-02-25T07:15:34.847Z,40
2018-02-25T07:16:35.088Z,40
2018-02-25T07:17:34.783Z,45
2018-02-25T07:18:34.766Z,45
2018-02-25T07:19:35.203Z,45
2018-02-25T07:20:35.230Z,45
2018-02-25T07:21:34.403Z,45
2018-02-25T07:22:34.653Z,45
2018-02-25T07:23:35.153Z,45
2018-02-25T07:24:34.325Z,50
2018-02-25T07:25:34.551Z,50
2018-02-25T07:26:34.527Z,50
2018-02-25T07:27:34.236Z,50
2018-02-25T07:28:34.478Z,50
2018-02-25T07:29:34.441Z,50
2018-02-25T07:30:34.412Z,50
2018-02-25T07:31:34.388Z,55
2018-02-25T07:32:34.126Z,55
2018-02-25T07:33:34.624Z,55
2018-02-25T07:34:34.310Z,55
2018-02-25T07:35:34.277Z,55
2018-02-25T07:36:34.277Z,55
2018-02-25T07:37:34.221Z,55
2018-02-25T07:38:34.460Z,55
2018-02-25T07:39:34.420Z,60
2018-02-25T07:40:33.864Z,60
2018-02-25T07:41:34.632Z,60
2018-02-25T07:42:33.884Z,60
2018-02-25T07:43:33.789Z,60
2018-02-25T07:44:34.032Z,60
2018-02-25T07:45:34.524Z,60
2018-02-25T07:46:34.228Z,60
2018-02-25T07:47:33.675Z,65
2018-02-25T07:48:34.273Z,65
2018-02-25T07:49:34.154Z,65
2018-02-25T07:50:33.596Z,65
2018-02-25T07:51:33.876Z,65
2018-02-25T07:52:34.057Z,65
2018-02-25T07:53:33.778Z,65
2018-02-25T07:54:33.743Z,65
2018-02-25T07:55:33.987Z,70
2018-02-25T07:56:33.711Z,70
2018-02-25T07:57:33.135Z,70
2018-02-25T07:58:33.381Z,70
2018-02-25T07:59:33.352Z,70
2018-02-25T08:00:33.332Z,70
2018-02-25T08:01:33.837Z,70
2018-02-25T08:02:33.792Z,70
2018-02-25T08:03:34.068Z,75
2018-02-25T08:04:33.207Z,75
2018-02-25T08:05:33.445Z,75
2018-02-25T08:06:33.676Z,75
2018-02-25T08:07:33.123Z,75
2018-02-25T08:08:33.488Z,75
2018-02-25T08:09:33.613Z,80
2018-02-25T08:10:33.587Z,80
2018-02-25T08:11:32.749Z,80
2018-02-25T08:12:33.270Z,80
2018-02-25T08:13:33.525Z,85
2018-02-25T08:14:33.196Z,85
2018-02-25T08:15:33.700Z,85
2018-02-25T08:16:33.409Z,90
2018-02-25T08:17:33.446Z,90
2018-02-25T08:18:33.628Z,85
2018-02-25T08:19:32.786Z,90
2018-02-25T08:20:33.036Z,90
2018-02-25T08:21:32.741Z,90
2018-02-25T08:22:33.242Z,95
2018-02-25T08:23:32.725Z,95
2018-02-25T08:24:32.981Z,95
2018-02-25T08:25:33.169Z,100
2018-02-25T08:26:33.158Z,170
2018-02-25T08:27:33.106Z,355
2018-02-25T08:28:32.545Z,345
2018-02-25T08:29:32.523Z,265
2018-02-25T08:30:32.501Z,180
2018-02-25T08:31:32.509Z,215
2018-02-25T08:32:32.715Z,345
2018-02-25T08:33:32.413Z,390
2018-02-25T08:34:32.945Z,390
2018-02-25T08:35:32.769Z,355
2018-02-25T08:36:32.079Z,280
2018-02-25T08:37:32.590Z,165
2018-02-25T08:38:32.831Z,135
2018-02-25T08:39:32.534Z,155
2018-02-25T08:40:32.510Z,295
2018-02-25T08:41:33.020Z,475
2018-02-25T08:42:32.457Z,475
2018-02-25T08:43:32.183Z,480
2018-02-25T08:44:32.686Z,520
2018-02-25T08:45:32.397Z,595
2018-02-25T08:46:32.362Z,545
2018-02-25T08:47:32.349Z,490
2018-02-25T08:48:32.324Z,555
2018-02-25T08:49:32.089Z,600
2018-02-25T08:50:32.550Z,610
2018-02-25T08:51:31.994Z,515
2018-02-25T08:52:32.251Z,550
2018-02-25T08:53:31.686Z,635
2018-02-25T08:54:32.202Z,600
2018-02-25T08:55:32.437Z,520
2018-02-25T08:56:32.424Z,380
2018-02-25T08:57:32.143Z,470
2018-02-25T08:58:32.109Z,450
2018-02-25T08:59:32.094Z,510
2018-02-25T09:00:32.349Z,520
2018-02-25T09:01:32.154Z,510
2018-02-25T09:02:32.312Z,510
2018-02-25T09:03:32.332Z,555
2018-02-25T09:04:31.998Z,560
2018-02-25T09:05:32.050Z,545
2018-02-25T09:06:31.716Z,450
2018-02-25T09:07:31.957Z,390
2018-02-25T09:08:32.218Z,340
2018-02-25T09:09:31.365Z,330
2018-02-25T09:10:32.145Z,450
2018-02-25T09:11:32.459Z,435
2018-02-25T09:12:31.847Z,410
2018-02-25T09:13:31.814Z,415
2018-02-25T09:14:32.367Z,400
2018-02-25T09:15:32.053Z,420
2018-02-25T09:16:31.759Z,385
2018-02-25T09:17:31.738Z,370
2018-02-25T09:18:31.719Z,370
2018-02-25T09:19:31.689Z,505
2018-02-25T09:20:31.879Z,670
2018-02-25T09:21:32.190Z,540
2018-02-25T09:22:31.920Z,510
2018-02-25T09:23:31.886Z,660
2018-02-25T09:24:31.342Z,600
2018-02-25T09:25:31.633Z,410
2018-02-25T09:26:31.303Z,270
2018-02-25T09:27:31.825Z,215
2018-02-25T09:28:32.085Z,210
2018-02-25T09:29:32.058Z,315
2018-02-25T09:30:31.823Z,360
2018-02-25T09:31:31.461Z,475
2018-02-25T09:32:31.976Z,405
2018-02-25T09:33:31.688Z,385
2018-02-25T09:34:31.163Z,430
2018-02-25T09:35:31.388Z,370
2018-02-25T09:36:31.381Z,335
2018-02-25T09:37:31.339Z,325
2018-02-25T09:38:31.324Z,325
2018-02-25T09:39:31.036Z,325
2018-02-25T09:40:31.564Z,315
2018-02-25T09:41:32.005Z,235
2018-02-25T09:42:31.521Z,240
2018-02-25T09:43:30.748Z,365
2018-02-25T09:44:31.472Z,695
2018-02-25T09:45:31.441Z,765
2018-02-25T09:46:30.903Z,460
2018-02-25T09:47:30.873Z,245
2018-02-25T09:48:31.655Z,430
2018-02-25T09:49:31.177Z,795
2018-02-25T09:50:31.101Z,925
2018-02-25T09:51:31.600Z,965
2018-02-25T09:52:30.775Z,950
2018-02-25T09:53:31.289Z,935
2018-02-25T09:54:31.040Z,790
2018-02-25T09:55:31.515Z,720
2018-02-25T09:56:31.490Z,640
2018-02-25T09:57:30.677Z,560
2018-02-25T09:58:31.203Z,605
2018-02-25T09:59:30.919Z,700
2018-02-25T10:00:30.644Z,545
2018-02-25T10:01:31.141Z,235
2018-02-25T10:02:31.122Z,235
2018-02-25T10:03:30.836Z,240
2018-02-25T10:04:30.826Z,185
2018-02-25T10:05:31.069Z,385
2018-02-25T10:06:30.777Z,535
2018-02-25T10:07:31.033Z,630
2018-02-25T10:08:30.739Z,655
2018-02-25T10:09:30.737Z,430
2018-02-25T10:10:30.963Z,375
2018-02-25T10:11:30.948Z,250
2018-02-25T10:12:30.931Z,200
2018-02-25T10:13:30.109Z,305
2018-02-25T10:14:31.275Z,335
2018-02-25T10:15:30.345Z,390
2018-02-25T10:16:30.851Z,540
2018-02-25T10:17:30.568Z,500
2018-02-25T10:18:30.540Z,470
2018-02-25T10:19:30.254Z,465
2018-02-25T10:20:30.239Z,510
2018-02-25T10:21:31.018Z,585
2018-02-25T10:22:30.463Z,585
2018-02-25T10:23:29.933Z,590
2018-02-25T10:24:30.177Z,520
2018-02-25T10:25:30.778Z,455
2018-02-25T10:26:30.403Z,370
2018-02-25T10:27:30.366Z,450
2018-02-25T10:28:29.820Z,475
2018-02-25T10:29:30.345Z,490
2018-02-25T10:30:30.313Z,465
2018-02-25T10:31:30.565Z,330
2018-02-25T10:32:30.279Z,315
2018-02-25T10:33:30.525Z,415
2018-02-25T10:34:30.237Z,385
2018-02-25T10:35:30.228Z,370
2018-02-25T10:36:30.277Z,325
2018-02-25T10:37:29.912Z,575
2018-02-25T10:38:30.187Z,815
2018-02-25T10:39:30.694Z,990
2018-02-25T10:40:30.404Z,950
2018-02-25T10:41:30.104Z,865
2018-02-25T10:42:30.088Z,790
2018-02-25T10:43:29.812Z,690
2018-02-25T10:44:29.787Z,550
2018-02-25T10:45:29.773Z,630
2018-02-25T10:46:30.009Z,585
2018-02-25T10:47:29.728Z,585
2018-02-25T10:48:30.266Z,695
2018-02-25T10:49:29.685Z,660
2018-02-25T10:50:29.947Z,700
2018-02-25T10:51:30.190Z,620
2018-02-25T10:52:30.474Z,560
2018-02-25T10:53:29.904Z,585
2018-02-25T10:54:29.900Z,625
2018-02-25T10:55:29.865Z,795
2018-02-25T10:56:29.575Z,755
2018-02-25T10:57:29.562Z,555
2018-02-25T10:58:29.540Z,370
2018-02-25T10:59:30.046Z,355
2018-02-25T11:00:30.041Z,395
2018-02-25T11:01:30.021Z,565
2018-02-25T11:02:29.479Z,820
2018-02-25T11:03:29.450Z,680
2018-02-25T11:04:29.974Z,505
2018-02-25T11:05:29.437Z,620
2018-02-25T11:06:29.940Z,575
2018-02-25T11:07:29.647Z,610
2018-02-25T11:08:29.626Z,595
2018-02-25T11:09:29.619Z,580
2018-02-25T11:10:29.327Z,640
2018-02-25T11:11:29.575Z,580
2018-02-25T11:12:29.290Z,710
2018-02-25T11:13:29.542Z,870
2018-02-25T11:14:29.794Z,790
2018-02-25T11:15:29.309Z,590
2018-02-25T11:16:29.745Z,700
2018-02-25T11:17:29.469Z,875
2018-02-25T11:18:29.453Z,965
2018-02-25T11:19:29.702Z,810
2018-02-25T11:20:29.627Z,375
2018-02-25T11:21:29.137Z,380
2018-02-25T11:22:29.660Z,595
2018-02-25T11:23:29.374Z,605
2018-02-25T11:24:29.096Z,820
2018-02-25T11:25:29.607Z,885
2018-02-25T11:26:29.058Z,855
2018-02-25T11:27:29.308Z,855
2018-02-25T11:28:29.021Z,790
2018-02-25T11:29:29.008Z,745
2018-02-25T11:30:29.523Z,620
2018-02-25T11:31:28.868Z,585
2018-02-25T11:32:29.500Z,635
2018-02-25T11:33:29.484Z,625
2018-02-25T11:34:29.209Z,765
2018-02-25T11:35:29.186Z,750
2018-02-25T11:36:29.437Z,650
2018-02-25T11:37:29.440Z,675
2018-02-25T11:38:28.613Z,720
2018-02-25T11:39:29.430Z,705
2018-02-25T11:40:29.114Z,720
2018-02-25T11:41:29.387Z,705
2018-02-25T11:42:29.467Z,670
2018-02-25T11:43:29.076Z,625
2018-02-25T11:44:29.074Z,645
2018-02-25T11:45:28.790Z,705
2018-02-25T11:46:28.763Z,770
2018-02-25T11:47:28.749Z,815
2018-02-25T11:48:28.732Z,890
2018-02-25T11:49:28.999Z,905
2018-02-25T11:50:28.973Z,880
2018-02-25T11:51:29.256Z,920
2018-02-25T11:52:28.418Z,855
2018-02-25T11:53:29.214Z,705
2018-02-25T11:54:29.206Z,760
2018-02-25T11:55:29.058Z,1030
2018-02-25T11:56:28.623Z,1095
2018-02-25T11:57:28.902Z,1000
2018-02-25T11:58:29.159Z,870
2018-02-25T11:59:28.895Z,960
2018-02-25T12:00:28.313Z,790
2018-02-25T12:01:28.832Z,610
2018-02-25T12:02:29.087Z,725
2018-02-25T12:03:28.574Z,880
2018-02-25T12:04:29.354Z,970
2018-02-25T12:05:28.789Z,940
2018-02-25T12:06:29.054Z,860
2018-02-25T12:07:28.766Z,900
2018-02-25T12:08:28.478Z,1015
2018-02-25T12:09:29.285Z,1165
2018-02-25T12:10:28.737Z,1085
2018-02-25T12:11:28.968Z,1095
2018-02-25T12:12:28.968Z,1105
2018-02-25T12:13:29.215Z,1105
2018-02-25T12:14:28.959Z,1115
2018-02-25T12:15:29.287Z,1150
2018-02-25T12:16:28.927Z,1175
2018-02-25T12:17:28.637Z,1190
2018-02-25T12:18:28.365Z,1185
2018-02-25T12:19:28.458Z,1150
2018-02-25T12:20:28.907Z,1150
2018-02-25T12:21:28.872Z,1160
2018-02-25T12:22:28.705Z,1115
2018-02-25T12:23:28.312Z,1150
2018-02-25T12:24:28.601Z,1115
2018-02-25T12:25:28.288Z,1090
2018-02-25T12:26:28.290Z,1070
2018-02-25T12:27:28.820Z,1055
2018-02-25T12:28:28.807Z,1030
2018-02-25T12:29:28.547Z,1080
2018-02-25T12:30:28.792Z,1155
2018-02-25T12:31:28.235Z,1170
2018-02-25T12:32:28.494Z,1175
2018-02-25T12:33:28.485Z,1170
2018-02-25T12:34:27.940Z,1160
2018-02-25T12:35:28.850Z,1160
2018-02-25T12:36:28.198Z,1200
2018-02-25T12:37:28.459Z,1240
2018-02-25T12:38:28.448Z,1245
2018-02-25T12:39:28.439Z,1230
2018-02-25T12:40:28.967Z,1205
2018-02-25T12:41:28.695Z,1180
2018-02-25T12:42:28.677Z,1170
2018-02-25T12:43:28.141Z,1170
2018-02-25T12:44:28.665Z,1185
2018-02-25T12:45:28.120Z,1175
2018-02-25T12:46:28.378Z,1140
2018-02-25T12:47:28.631Z,1120
2018-02-25T12:48:28.103Z,1050
2018-02-25T12:49:28.374Z,1070
2018-02-25T12:50:28.369Z,1075
2018-02-25T12:51:28.618Z,1075
2018-02-25T12:52:28.069Z,1135
2018-02-25T12:53:28.910Z,1075
2018-02-25T12:54:28.332Z,1120
2018-02-25T12:55:28.320Z,1115
2018-02-25T12:56:28.581Z,1090
2018-02-25T12:57:28.858Z,1095
2018-02-25T12:58:28.899Z,1085
2018-02-25T12:59:28.600Z,1065
2018-02-25T13:00:28.297Z,1100
2018-02-25T13:01:28.555Z,1115
2018-02-25T13:02:28.264Z,1115
2018-02-25T13:03:28.048Z,1130
2018-02-25T13:04:28.531Z,1125
2018-02-25T13:05:28.549Z,1125
2018-02-25T13:06:27.981Z,1140
2018-02-25T13:07:28.515Z,1115
2018-02-25T13:08:28.255Z,1045
2018-02-25T13:09:28.236Z,955
2018-02-25T13:10:28.478Z,1075
2018-02-25T13:11:27.936Z,1105
2018-02-25T13:12:28.463Z,1020
2018-02-25T13:13:28.510Z,840
2018-02-25T13:14:28.449Z,1090
2018-02-25T13:15:28.184Z,1075
2018-02-25T13:16:28.505Z,1055
2018-02-25T13:17:28.427Z,645
2018-02-25T13:18:27.893Z,875
2018-02-25T13:19:28.675Z,735
2018-02-25T13:20:28.347Z,725
2018-02-25T13:21:28.402Z,1010
2018-02-25T13:22:27.862Z,985
2018-02-25T13:23:28.382Z,975
2018-02-25T13:24:27.615Z,990
2018-02-25T13:25:28.627Z,1025
2018-02-25T13:26:28.093Z,1065
2018-02-25T13:27:28.351Z,1060
2018-02-25T13:28:28.081Z,1045
2018-02-25T13:29:28.340Z,1030
2018-02-25T13:30:28.332Z,1020
2018-02-25T13:31:27.786Z,1005
2018-02-25T13:32:28.588Z,985
2018-02-25T13:33:28.586Z,995
2018-02-25T13:34:28.178Z,1000
2018-02-25T13:35:28.286Z,985
2018-02-25T13:36:27.749Z,955
2018-02-25T13:37:27.741Z,955
2018-02-25T13:38:27.732Z,965
2018-02-25T13:39:27.725Z,975
2018-02-25T13:40:27.989Z,910
2018-02-25T13:41:28.236Z,725
2018-02-25T13:42:27.697Z,735
2018-02-25T13:43:28.499Z,865
2018-02-25T13:44:27.965Z,845
2018-02-25T13:45:28.203Z,995
2018-02-25T13:46:28.196Z,990
2018-02-25T13:47:28.070Z,1010
2018-02-25T13:48:27.908Z,1015
2018-02-25T13:49:28.219Z,915
2018-02-25T13:50:27.888Z,915
2018-02-25T13:51:27.877Z,955
2018-02-25T13:52:28.140Z,965
2018-02-25T13:53:28.125Z,900
2018-02-25T13:54:27.862Z,920
2018-02-25T13:55:28.358Z,950
2018-02-25T13:56:28.100Z,880
2018-02-25T13:57:28.099Z,960
2018-02-25T13:58:27.558Z,800
2018-02-25T13:59:27.810Z,780
2018-02-25T14:00:27.528Z,860
2018-02-25T14:01:27.794Z,795
2018-02-25T14:02:28.088Z,870
2018-02-25T14:03:27.759Z,870
2018-02-25T14:04:27.797Z,840
2018-02-25T14:05:27.743Z,770
2018-02-25T14:06:27.994Z,750
2018-02-25T14:07:27.721Z,745
2018-02-25T14:08:27.712Z,745
2018-02-25T14:09:27.703Z,745
2018-02-25T14:10:27.959Z,735
2018-02-25T14:11:27.416Z,740
2018-02-25T14:12:27.409Z,740
2018-02-25T14:13:27.931Z,745
2018-02-25T14:14:27.921Z,750